Time;durP1;ratioP1;P1;durP2;ratioP2;P2;SDS_P1;SDS_P2;PMS_P1;PMS_P2;Temp;Humidity;BMP_temperature;BMP_pressure;BME280_temperature;BME280_humidity;BME280_pressure;Samples;Min_cycle;Max_cycle;Signal;HPM_P1;HPM_P2
2023/09/05 02:26:00;;;;;;;5.70;2.97;;;19.00;99.90;;;;;;4926819;29;20043;-81
2023/09/05 02:28:26;;;;;;;4.63;3.10;;;19.00;99.90;;;;;;4926621;29;20028;-82
2023/09/05 02:30:53;;;;;;;6.15;3.60;;;19.00;99.90;;;;;;4923798;29;20314;-81
2023/09/05 02:33:19;;;;;;;6.15;3.20;;;;;;;;;;4924626;29;20465;-81
2023/09/05 02:35:45;;;;;;;6.25;3.22;;;;;;;;;;4931399;29;20032;-80
2023/09/05 02:38:13;;;;;;;4.53;3.10;;;18.90;99.90;;;;;;4928037;29;20071;-80
2023/09/05 02:40:49;;;;;;;4.78;3.05;;;18.90;99.90;;;;;;4949306;28;20111;-81
2023/09/05 02:43:20;;;;;;;3.90;2.92;;;18.90;99.90;;;;;;4936630;29;20499;-81
2023/09/05 02:45:53;;;;;;;6.28;3.22;;;;;;;;;;4924450;29;20031;-82
2023/09/05 02:48:19;;;;;;;6.22;3.28;;;;;;;;;;4924551;29;20066;-81
2023/09/05 02:50:45;;;;;;;7.47;3.38;;;;;;;;;;4920394;29;20040;-80
2023/09/05 02:53:14;;;;;;;4.63;3.10;;;;;;;;;;4926237;29;20016;-81
2023/09/05 02:55:43;;;;;;;5.00;3.25;;;18.90;99.90;;;;;;4929224;29;20078;-80
2023/09/05 02:58:12;;;;;;;5.10;3.30;;;18.90;99.90;;;;;;4924677;29;20083;-81
2023/09/05 03:00:38;;;;;;;6.50;3.03;;;;;;;;;;4927555;29;20488;-81
2023/09/05 03:03:07;;;;;;;6.03;3.10;;;18.80;99.90;;;;;;4926164;29;20118;-81
2023/09/05 03:05:33;;;;;;;4.32;3.00;;;;;;;;;;4930668;29;20063;-81
2023/09/05 03:08:02;;;;;;;4.30;3.00;;;19.00;99.90;;;;;;4925226;29;20508;-81
2023/09/05 03:10:30;;;;;;;3.60;2.53;;;19.00;99.90;;;;;;4926205;29;20371;-81
2023/09/05 03:12:59;;;;;;;4.95;2.88;;;19.00;99.90;;;;;;4924965;29;20167;-81
2023/09/05 03:15:25;;;;;;;5.50;2.90;;;;;;;;;;4927475;29;20038;-82
2023/09/05 03:18:00;;;;;;;6.85;3.50;;;18.90;99.90;;;;;;4929699;29;20035;-83
2023/09/05 03:20:35;;;;;;;4.65;3.00;;;;;;;;;;4926031;29;20042;-82
2023/09/05 03:23:01;;;;;;;6.32;3.20;;;;;;;;;;4947309;28;20083;-82
2023/09/05 03:25:27;;;;;;;4.70;3.20;;;18.80;99.90;;;;;;4946859;28;20063;-82
2023/09/05 03:27:53;;;;;;;6.43;3.20;;;18.80;99.90;;;;;;4955761;23;20024;-81
2023/09/05 03:30:19;;;;;;;3.97;2.53;;;;;;;;;;4950368;28;20058;-81
2023/09/05 03:32:44;;;;;;;4.30;2.78;;;18.70;99.90;;;;;;5019395;23;20063;-88
2023/09/05 03:35:10;;;;;;;4.47;2.85;;;18.70;99.90;;;;;;4953359;28;20020;-88
2023/09/05 03:37:36;;;;;;;6.40;3.20;;;;;;;;;;4948705;28;20043;-86
2023/09/05 03:40:01;;;;;;;4.03;2.75;;;18.80;99.90;;;;;;4951338;28;20051;-87
2023/09/05 03:42:27;;;;;;;5.32;3.05;;;;;;;;;;4953140;28;20017;-86
2023/09/05 03:44:53;;;;;;;3.83;2.50;;;18.70;99.90;;;;;;4950192;28;20035;-85
2023/09/05 03:47:19;;;;;;;5.75;3.28;;;;;;;;;;4952617;28;20027;-86
2023/09/05 03:49:44;;;;;;;4.30;3.17;;;18.70;99.90;;;;;;4954319;28;20041;-86
2023/09/05 03:52:10;;;;;;;4.47;2.95;;;;;;;;;;4953057;28;20031;-86
2023/09/05 03:54:37;;;;;;;6.40;2.90;;;18.60;99.90;;;;;;4952300;28;20034;-86
2023/09/05 03:57:03;;;;;;;5.07;2.95;;;;;;;;;;4950998;28;20039;-85
2023/09/05 03:59:29;;;;;;;6.32;3.00;;;;;;;;;;4951019;28;20043;-85
2023/09/05 04:01:55;;;;;;;6.65;3.13;;;;;;;;;;4951715;28;20024;-83
2023/09/05 04:04:21;;;;;;;5.47;3.63;;;;;;;;;;4948366;28;20032;-86
2023/09/05 04:06:47;;;;;;;4.13;2.90;;;;;;;;;;4952612;28;20023;-86
2023/09/05 04:09:13;;;;;;;4.85;3.05;;;;;;;;;;4954329;28;20028;-86
2023/09/05 04:11:39;;;;;;;4.43;2.97;;;;;;;;;;4950809;28;20043;-87
2023/09/05 04:14:05;;;;;;;4.25;2.88;;;;;;;;;;4951168;28;20045;-87
2023/09/05 04:16:31;;;;;;;5.32;3.00;;;;;;;;;;4948250;28;20036;-87
2023/09/05 04:18:57;;;;;;;5.20;2.92;;;;;;;;;;4948543;28;20027;-88
2023/09/05 04:21:23;;;;;;;5.63;3.20;;;;;;;;;;4954763;28;20043;-87
2023/09/05 04:23:49;;;;;;;4.00;2.83;;;;;;;;;;4957263;28;20024;-88
2023/09/05 04:26:15;;;;;;;5.30;2.97;;;;;;;;;;4953820;28;20363;-88
2023/09/05 04:28:41;;;;;;;4.85;2.83;;;;;;;;;;4955739;29;20040;-87
2023/09/05 04:31:07;;;;;;;4.78;2.83;;;;;;;;;;4952808;29;20548;-88
2023/09/05 04:33:37;;;;;;;4.63;3.05;;;;;;;;;;4957943;29;20032;-87
2023/09/05 04:36:04;;;;;;;6.03;3.00;;;;;;;;;;4937108;29;20040;-87
2023/09/05 04:38:30;;;;;;;4.07;3.00;;;;;;;;;;4945425;29;20099;-87
2023/09/05 04:41:01;;;;;;;5.35;3.30;;;18.20;99.90;;;;;;4942197;29;20646;-86
2023/09/05 04:43:26;;;;;;;6.30;3.17;;;;;;;;;;4948037;29;20028;-87
2023/09/05 04:45:56;;;;;;;5.78;3.45;;;18.10;99.90;;;;;;4953965;28;20028;-86
2023/09/05 04:48:25;;;;;;;6.38;2.95;;;18.10;99.90;;;;;;4955420;28;20030;-87
2023/09/05 04:50:51;;;;;;;4.43;2.97;;;;;;;;;;4956491;28;20071;-88
2023/09/05 04:53:17;;;;;;;4.93;3.15;;;18.10;99.90;;;;;;4946152;28;20047;-85
2023/09/05 04:55:43;;;;;;;5.30;3.38;;;;;;;;;;4946067;28;20036;-87
2023/09/05 04:58:11;;;;;;;6.82;3.10;;;18.10;99.90;;;;;;4937948;29;20024;-86
2023/09/05 05:00:37;;;;;;;7.63;3.20;;;;;;;;;;4947923;29;20036;-88
2023/09/05 05:03:03;;;;;;;7.78;3.83;;;17.90;99.90;;;;;;4949665;28;20111;-87
2023/09/05 05:05:29;;;;;;;6.75;3.65;;;17.80;99.90;;;;;;4961052;28;20040;-88
2023/09/05 05:07:55;;;;;;;8.85;4.05;;;;;;;;;;4949078;28;20017;-87
2023/09/05 05:10:21;;;;;;;7.00;4.10;;;;;;;;;;4940485;28;20043;-87
2023/09/05 05:12:47;;;;;;;6.80;3.83;;;;;;;;;;4938988;29;20034;-87
2023/09/05 05:15:13;;;;;;;5.60;3.70;;;;;;;;;;4941481;29;20122;-86
2023/09/05 05:17:40;;;;;;;7.88;4.00;;;;;;;;;;4933244;29;20359;-86
2023/09/05 05:20:06;;;;;;;7.53;3.83;;;17.50;99.90;;;;;;4937108;28;20504;-86
2023/09/05 05:22:33;;;;;;;5.80;3.80;;;;;;;;;;4944548;29;20019;-86
2023/09/05 05:24:59;;;;;;;5.45;3.85;;;;;;;;;;4961958;28;20016;-86
2023/09/05 05:27:25;;;;;;;7.80;4.20;;;;;;;;;;4954638;28;20116;-87
2023/09/05 05:29:52;;;;;;;5.35;3.67;;;;;;;;;;4951896;28;20047;-85
2023/09/05 05:32:18;;;;;;;9.30;3.90;;;17.20;99.90;;;;;;4947060;28;20364;-87
2023/09/05 05:34:48;;;;;;;7.90;3.70;;;17.30;99.90;;;;;;4933786;29;20069;-86
2023/09/05 05:37:14;;;;;;;7.78;3.92;;;;;;;;;;4930921;29;20032;-86
2023/09/05 05:39:40;;;;;;;8.25;4.03;;;;;;;;;;4927558;29;20038;-87
2023/09/05 05:42:06;;;;;;;6.15;3.80;;;;;;;;;;4933635;29;20051;-87
2023/09/05 05:44:32;;;;;;;7.40;4.15;;;17.20;99.90;;;;;;4924836;29;20074;-87
2023/09/05 05:46:58;;;;;;;6.32;4.40;;;;;;;;;;4930089;29;20078;-87
2023/09/05 05:49:28;;;;;;;5.65;3.45;;;17.30;99.90;;;;;;4931315;29;20145;-87
2023/09/05 05:51:58;;;;;;;9.88;3.92;;;17.30;99.90;;;;;;4949225;28;20027;-86
2023/09/05 05:54:25;;;;;;;4.95;3.72;;;;;;;;;;4952639;28;20043;-87
2023/09/05 05:56:55;;;;;;;9.23;4.47;;;17.40;99.90;;;;;;4945250;28;20043;-87
2023/09/05 05:59:21;;;;;;;;;;;17.30;99.90;;;;;;4942946;29;20064;-86
2023/09/05 06:01:47;;;;;;;8.57;4.15;;;;;;;;;;4952358;28;20011;-87
2023/09/05 06:04:15;;;;;;;7.30;3.80;;;;;;;;;;4951582;28;20028;-88
2023/09/05 06:06:42;;;;;;;7.72;3.85;;;;;;;;;;4947911;28;20040;-87
2023/09/05 06:09:08;;;;;;;7.72;3.80;;;;;;;;;;4949771;28;20018;-86
2023/09/05 06:11:34;;;;;;;6.45;3.58;;;;;;;;;;4943939;28;20137;-85
2023/09/05 06:14:00;;;;;;;5.72;3.78;;;;;;;;;;4931801;29;20088;-86
2023/09/05 06:16:27;;;;;;;9.55;3.60;;;;;;;;;;4935148;29;20135;-86
2023/09/05 06:18:53;;;;;;;6.90;3.10;;;;;;;;;;4941767;29;20040;-87
2023/09/05 06:21:20;;;;;;;5.03;3.40;;;;;;;;;;4937717;29;20035;-87
2023/09/05 06:23:46;;;;;;;5.38;3.80;;;;;;;;;;4936759;29;20028;-86
2023/09/05 06:26:12;;;;;;;6.95;3.42;;;;;;;;;;4932568;29;20086;-86
2023/09/05 06:28:40;;;;;;;5.18;3.20;;;;;;;;;;4932786;29;20040;-85
2023/09/05 06:31:07;;;;;;;7.63;4.03;;;18.10;99.90;;;;;;4930256;29;20038;-85
2023/09/05 06:33:33;;;;;;;6.40;4.15;;;18.20;99.90;;;;;;4933997;29;20027;-86
2023/09/05 06:36:05;;;;;;;6.95;3.70;;;18.40;99.90;;;;;;4936152;29;20122;-85
2023/09/05 06:38:30;;;;;;;7.70;3.50;;;18.50;99.90;;;;;;4929726;29;20062;-87
2023/09/05 06:40:56;;;;;;;6.38;3.80;;;18.50;99.90;;;;;;4928395;29;20421;-85
2023/09/05 06:43:21;;;;;;;7.60;3.50;;;18.70;99.90;;;;;;4939263;29;20035;-86
2023/09/05 06:45:47;;;;;;;7.82;3.75;;;;;;;;;;4926115;29;20205;-85
2023/09/05 06:48:13;;;;;;;6.30;3.22;;;;;;;;;;4943156;28;20048;-87
2023/09/05 06:50:39;;;;;;;4.75;2.78;;;;;;;;;;4949803;28;20055;-87
2023/09/05 06:53:05;;;;;;;4.38;2.70;;;;;;;;;;4953800;28;20016;-86
2023/09/05 06:55:34;;;;;;;6.57;2.83;;;;;;;;;;4952171;28;20070;-87
2023/09/05 06:58:00;;;;;;;7.50;3.92;;;;;;;;;;4952428;28;20917;-86
2023/09/05 07:00:27;;;;;;;5.88;2.97;;;;;;;;;;4954866;28;20031;-85
2023/09/05 07:02:53;;;;;;;3.67;2.50;;;;;;;;;;4952291;28;20023;-85
2023/09/05 07:05:20;;;;;;;3.92;2.70;;;;;;;;;;4958186;28;20032;-86
2023/09/05 07:07:45;;;;;;;5.50;2.90;;;;;;;;;;4954196;28;20019;-83
2023/09/05 07:10:12;;;;;;;4.80;2.75;;;;;;;;;;4951986;28;20036;-85
2023/09/05 07:12:38;;;;;;;4.78;2.60;;;;;;;;;;4950068;28;20037;-86
2023/09/05 07:15:05;;;;;;;4.53;2.97;;;;;;;;;;4955579;28;20078;-84
2023/09/05 07:17:31;;;;;;;4.63;2.92;;;;;;;;;;4954093;28;20039;-86
2023/09/05 07:19:57;;;;;;;3.70;2.40;;;;;;;;;;4947774;28;20071;-86
2023/09/05 07:22:23;;;;;;;6.10;2.80;;;;;;;;;;4940804;29;20031;-86
2023/09/05 07:24:49;;;;;;;3.83;2.50;;;20.80;99.90;;;;;;4949125;28;20023;-86
2023/09/05 07:27:16;;;;;;;7.10;2.60;;;;;;;;;;4947030;28;20027;-85
2023/09/05 07:29:43;;;;;;;6.38;2.70;;;;;;;;;;4953140;28;20026;-85
2023/09/05 07:32:09;;;;;;;7.40;3.33;;;;;;;;;;4949205;28;20024;-86
2023/09/05 07:34:35;;;;;;;3.78;2.45;;;;;;;;;;4945481;28;20096;-82
2023/09/05 07:37:01;;;;;;;3.55;2.30;;;;;;;;;;4952447;28;20024;-86
2023/09/05 07:39:27;;;;;;;5.25;2.78;;;;;;;;;;4951181;28;20023;-87
2023/09/05 07:41:53;;;;;;;6.25;2.78;;;;;;;;;;4946586;28;20019;-86
2023/09/05 07:44:19;;;;;;;4.20;2.50;;;;;;;;;;4949538;28;20051;-88
2023/09/05 07:46:45;;;;;;;4.47;2.63;;;;;;;;;;4949785;28;20031;-86
2023/09/05 07:49:11;;;;;;;5.30;2.63;;;;;;;;;;4951535;29;20030;-87
2023/09/05 07:51:37;;;;;;;6.00;2.58;;;;;;;;;;4946705;28;20039;-88
2023/09/05 07:54:06;;;;;;;4.57;2.75;;;22.00;99.90;;;;;;4948132;28;20016;-90
2023/09/05 07:56:33;;;;;;;6.73;2.80;;;;;;;;;;4948721;29;20126;-86
2023/09/05 07:58:59;;;;;;;7.75;2.75;;;;;;;;;;4948517;29;20024;-88
2023/09/05 08:01:25;;;;;;;5.15;2.40;;;;;;;;;;4945539;29;20024;-88
2023/09/05 08:03:52;;;;;;;7.10;2.30;;;;;;;;;;4948410;29;20051;-87
2023/09/05 08:06:18;;;;;;;3.88;2.42;;;;;;;;;;4946671;29;20131;-86
2023/09/05 08:08:44;;;;;;;4.05;2.47;;;;;;;;;;4948340;29;20050;-87
2023/09/05 08:11:10;;;;;;;6.30;2.50;;;;;;;;;;4952615;28;20036;-91
2023/09/05 08:13:36;;;;;;;5.40;2.55;;;;;;;;;;4959069;28;20047;-91
2023/09/05 08:16:02;;;;;;;5.05;2.33;;;;;;;;;;4959693;28;20036;-90
2023/09/05 08:18:30;;;;;;;3.55;2.53;;;;;;;;;;4943799;29;20028;-89
2023/09/05 08:20:59;;;;;;;4.82;2.53;;;;;;;;;;4951391;29;20023;-87
2023/09/05 08:23:26;;;;;;;4.23;2.70;;;;;;;;;;4952509;29;20038;-84
2023/09/05 08:25:56;;;;;;;4.18;2.35;;;;;;;;;;4951887;28;20032;-89
2023/09/05 08:28:22;;;;;;;;;;;;;;;;;;4962633;28;20043;-92
2023/09/05 08:30:48;;;;;;;4.90;2.40;;;;;;;;;;4960100;28;19911;-92
2023/09/05 08:33:15;;;;;;;7.05;2.40;;;;;;;;;;4960859;28;20023;-91
2023/09/05 08:35:41;;;;;;;4.25;2.40;;;;;;;;;;4960326;28;20032;-92
2023/09/05 08:38:07;;;;;;;3.90;2.70;;;;;;;;;;4950136;28;20210;-91
2023/09/05 08:40:35;;;;;;;4.43;2.65;;;;;;;;;;4947343;29;20090;-87
2023/09/05 08:43:02;;;;;;;6.07;2.50;;;;;;;;;;4940161;29;20042;-88
2023/09/05 08:45:30;;;;;;;5.43;2.65;;;;;;;;;;4938957;29;20035;-88
2023/09/05 08:47:56;;;;;;;4.00;2.40;;;;;;;;;;4938642;29;20086;-86
2023/09/05 08:50:25;;;;;;;6.22;2.80;;;;;;;;;;4944739;29;20040;-86
2023/09/05 08:52:54;;;;;;;4.70;2.58;;;;;;;;;;4940986;29;20036;-88
2023/09/05 08:55:23;;;;;;;4.82;2.30;;;;;;;;;;4944586;29;20111;-87
2023/09/05 08:57:52;;;;;;;4.30;2.17;;;;;;;;;;4939329;29;20023;-83
2023/09/05 09:00:18;;;;;;;3.65;2.42;;;;;;;;;;4925754;29;20127;-84
2023/09/05 09:02:45;;;;;;;3.88;2.22;;;;;;;;;;4940810;29;20036;-84
2023/09/05 09:05:11;;;;;;;4.88;2.60;;;;;;;;;;4940784;29;20040;-83
2023/09/05 09:07:38;;;;;;;4.25;2.45;;;;;;;;;;4939082;29;20031;-84
2023/09/05 09:10:16;;;;;;;4.03;2.47;;;;;;;;;;4945213;29;20047;-84
2023/09/05 09:12:43;;;;;;;4.22;2.30;;;;;;;;;;4952154;28;20055;-89
2023/09/05 09:15:09;;;;;;;3.38;2.40;;;;;;;;;;4957534;28;20032;-87
2023/09/05 09:17:36;;;;;;;3.75;2.30;;;;;;;;;;4955500;28;20028;-89
2023/09/05 09:20:05;;;;;;;5.30;2.40;;;;;;;;;;4956723;28;20031;-85
2023/09/05 09:22:31;;;;;;;3.33;1.90;;;;;;;;;;4960240;28;20112;-82
2023/09/05 09:24:57;;;;;;;3.83;2.22;;;;;;;;;;4965564;28;20031;-87
2023/09/05 09:27:23;;;;;;;2.97;2.10;;;;;;;;;;4957587;28;20039;-88
2023/09/05 09:29:57;;;;;;;5.07;2.30;;;;;;;;;;4965095;28;20056;-86
2023/09/05 09:32:24;;;;;;;3.92;2.00;;;;;;;;;;4948254;28;20405;-85
2023/09/05 09:34:51;;;;;;;4.00;2.28;;;;;;;;;;4936450;29;20031;-82
2023/09/05 09:37:26;;;;;;;3.10;1.98;;;;;;;;;;4933901;29;20039;-83
2023/09/05 09:39:59;;;;;;;5.20;2.28;;;;;;;;;;4935019;29;20484;-82
2023/09/05 09:42:27;;;;;;;3.03;1.85;;;;;;;;;;4940345;29;20024;-83
2023/09/05 09:44:53;;;;;;;3.00;2.00;;;;;;;;;;4943623;29;20012;-87
2023/09/05 09:47:19;;;;;;;3.17;2.10;;;;;;;;;;4952769;29;20028;-88
2023/09/05 09:49:48;;;;;;;3.75;2.30;;;;;;;;;;4952514;29;20028;-88
2023/09/05 09:52:16;;;;;;;3.22;1.73;;;;;;;;;;4954850;28;20019;-89
2023/09/05 09:54:44;;;;;;;4.25;2.03;;;;;;;;;;4956187;28;20036;-84
2023/09/05 09:57:12;;;;;;;4.03;2.00;;;;;;;;;;4957200;29;20015;-85
2023/09/05 09:59:43;;;;;;;5.10;1.90;;;;;;;;;;4949891;29;20036;-84
2023/09/05 10:02:10;;;;;;;2.22;1.55;;;;;;;;;;4938884;29;20136;-83
2023/09/05 10:04:37;;;;;;;3.00;1.83;;;;;;;;;;4937481;29;20032;-83
2023/09/05 10:07:07;;;;;;;2.78;1.92;;;;;;;;;;4939260;29;20031;-84
2023/09/05 10:09:40;;;;;;;3.20;1.70;;;;;;;;;;4930697;29;20032;-84
2023/09/05 10:12:08;;;;;;;2.83;1.80;;;;;;;;;;4937934;29;20024;-85
2023/09/05 10:14:38;;;;;;;4.13;1.80;;;;;;;;;;4943476;29;20063;-84
2023/09/05 10:17:05;;;;;;;3.13;1.65;;;;;;;;;;4944800;28;20032;-87
2023/09/05 10:19:33;;;;;;;2.45;1.60;;;;;;;;;;4954609;29;20059;-84
2023/09/05 10:22:00;;;;;;;3.90;1.33;;;;;;;;;;4948396;29;20035;-83
2023/09/05 10:24:28;;;;;;;2.92;1.65;;;;;;;;;;4939573;29;20607;-83
2023/09/05 10:26:54;;;;;;;2.97;1.70;;;;;;;;;;4940150;29;20027;-85
2023/09/05 10:29:46;;;;;;;3.92;1.98;;;;;;;;;;4942938;28;20035;-83
2023/09/05 10:32:22;;;;;;;4.07;1.80;;;;;;;;;;4939337;29;20042;-84
2023/09/05 10:34:49;;;;;;;2.45;1.35;;;;;;;;;;4941331;29;20030;-83
2023/09/05 10:37:15;;;;;;;2.97;1.80;;;;;;;;;;4935214;29;20020;-84
2023/09/05 10:39:50;;;;;;;5.18;1.60;;;;;;;;;;4939130;29;20406;-84
2023/09/05 10:42:17;;;;;;;3.13;1.50;;;;;;;;;;4942843;29;20512;-83
2023/09/05 10:44:46;;;;;;;2.85;1.70;;;;;;;;;;4936594;29;20044;-83
2023/09/05 10:47:29;;;;;;;;;;;27.50;91.70;;;;;;4938245;29;20035;-84
2023/09/05 10:49:59;;;;;;;3.22;1.83;;;;;;;;;;4955409;28;19954;-88
2023/09/05 10:52:29;;;;;;;3.20;1.70;;;;;;;;;;4947591;28;20040;-86
2023/09/05 10:54:56;;;;;;;3.95;2.72;;;;;;;;;;4954441;28;20032;-84
2023/09/05 10:57:36;;;;;;;4.30;1.77;;;;;;;;;;4948912;28;20028;-83
2023/09/05 11:00:15;;;;;;;4.03;1.83;;;;;;;;;;4956729;28;20031;-87
2023/09/05 11:02:45;;;;;;;3.83;1.48;;;;;;;;;;4954105;28;20047;-89
2023/09/05 11:15:33;;;;;;;2.67;1.60;;;;;;;;;;4982389;28;20047;-86
2023/09/05 11:18:00;;;;;;;2.30;1.67;;;;;;;;;;4972379;28;20429;-85
2023/09/05 11:20:39;;;;;;;3.15;1.40;;;;;;;;;;4966129;28;20134;-84
2023/09/05 11:23:25;;;;;;;2.45;1.50;;;;;;;;;;4974263;28;20030;-86
2023/09/05 11:25:53;;;;;;;3.42;1.77;;;28.40;90.40;;;;;;4964127;28;20102;-84
2023/09/05 11:28:24;;;;;;;2.75;1.88;;;28.50;90.20;;;;;;4963295;28;20049;-84
2023/09/05 11:30:56;;;;;;;3.53;2.22;;;;;;;;;;4948338;28;20039;-82
2023/09/05 11:33:23;;;;;;;4.18;1.50;;;;;;;;;;4963476;28;20023;-86
2023/09/05 11:35:49;;;;;;;3.15;1.50;;;;;;;;;;4966251;28;20055;-84
2023/09/05 11:38:16;;;;;;;3.78;1.60;;;;;;;;;;4965355;28;20027;-84
2023/09/05 11:40:55;;;;;;;2.38;1.40;;;28.70;90.00;;;;;;4968877;28;20027;-89
2023/09/05 11:43:45;;;;;;;6.28;1.58;;;28.90;89.10;;;;;;4991541;28;20408;-87
2023/09/05 11:46:11;;;;;;;2.60;1.63;;;;;;;;;;4994272;28;20039;-85
2023/09/05 11:48:37;;;;;;;2.47;1.48;;;;;;;;;;4987889;28;20031;-89
2023/09/05 11:51:04;;;;;;;2.83;1.60;;;;;;;;;;4997636;28;20066;-88
2023/09/05 11:53:30;;;;;;;2.20;1.42;;;;;;;;;;4987851;28;20234;-83
2023/09/05 11:55:57;;;;;;;2.70;1.40;;;;;;;;;;4985652;28;20034;-85
2023/09/05 11:58:23;;;;;;;2.40;1.50;;;;;;;;;;4978800;28;20027;-84
2023/09/05 12:00:50;;;;;;;3.50;1.60;;;;;;;;;;4975215;28;20027;-84
2023/09/05 12:03:17;;;;;;;3.72;1.30;;;;;;;;;;4971159;28;20030;-84
2023/09/05 12:05:48;;;;;;;2.33;1.42;;;;;;;;;;4977858;28;20042;-85
2023/09/05 12:08:14;;;;;;;1.92;1.30;;;;;;;;;;4977562;28;20090;-84
2023/09/05 12:10:41;;;;;;;1.92;1.20;;;;;;;;;;4957904;28;20067;-84
2023/09/05 12:13:07;;;;;;;3.05;1.60;;;;;;;;;;4972520;28;20015;-87
2023/09/05 12:15:33;;;;;;;2.22;1.30;;;;;;;;;;4972511;28;20035;-85
2023/09/05 12:18:03;;;;;;;2.75;1.67;;;29.20;84.60;;;;;;4975189;28;20026;-85
2023/09/05 12:20:29;;;;;;;1.70;1.23;;;;;;;;;;4984200;28;20034;-85
2023/09/05 12:22:55;;;;;;;2.75;1.30;;;;;;;;;;4975714;28;20043;-83
2023/09/05 12:25:24;;;;;;;2.38;1.58;;;;;;;;;;4978175;28;20372;-85
2023/09/05 12:27:51;;;;;;;2.83;1.33;;;;;;;;;;4972975;28;20121;-84
2023/09/05 12:30:32;;;;;;;2.13;1.40;;;;;;;;;;4973170;28;20035;-84
2023/09/05 12:33:03;;;;;;;3.95;1.50;;;29.50;83.70;;;;;;4975071;28;20022;-87
2023/09/05 12:35:29;;;;;;;2.58;1.65;;;;;;;;;;4975730;28;20049;-84
2023/09/05 12:37:56;;;;;;;1.77;1.30;;;29.30;83.80;;;;;;4975820;28;20027;-85
2023/09/05 12:40:24;;;;;;;2.35;1.33;;;29.20;82.70;;;;;;4967289;28;20054;-86
2023/09/05 12:42:50;;;;;;;2.60;1.50;;;;;;;;;;4962616;28;20066;-85
2023/09/05 12:45:16;;;;;;;2.28;1.25;;;;;;;;;;4993388;28;20027;-87
2023/09/05 12:47:43;;;;;;;2.17;1.50;;;;;;;;;;4979725;28;20031;-86
2023/09/05 12:50:12;;;;;;;2.63;1.70;;;;;;;;;;4974211;28;20018;-85
2023/09/05 12:52:38;;;;;;;4.68;1.50;;;;;;;;;;4981407;28;20480;-87
2023/09/05 12:55:04;;;;;;;3.42;1.65;;;;;;;;;;4978882;28;20361;-85
2023/09/05 12:57:30;;;;;;;2.15;1.48;;;;;;;;;;4976658;28;20061;-85
2023/09/05 12:59:57;;;;;;;3.10;1.63;;;;;;;;;;4982949;28;20034;-86
2023/09/05 13:02:23;;;;;;;2.08;1.23;;;;;;;;;;4983347;28;20035;-85
2023/09/05 13:04:50;;;;;;;2.92;1.63;;;;;;;;;;4978296;28;20117;-85
2023/09/05 13:07:16;;;;;;;2.58;1.42;;;;;;;;;;4977183;28;20031;-86
2023/09/05 13:09:42;;;;;;;2.70;1.42;;;;;;;;;;4982930;28;20066;-85
2023/09/05 13:12:08;;;;;;;2.38;1.33;;;;;;;;;;4973767;28;20031;-86
2023/09/05 13:14:37;;;;;;;2.47;1.70;;;;;;;;;;4980172;28;20386;-85
2023/09/05 13:17:03;;;;;;;4.80;1.60;;;;;;;;;;4980609;28;20030;-90
2023/09/05 13:19:29;;;;;;;2.67;1.58;;;;;;;;;;4990910;28;20035;-88
2023/09/05 13:21:55;;;;;;;2.10;1.30;;;;;;;;;;4995365;28;20030;-89
2023/09/05 13:24:21;;;;;;;3.30;1.55;;;;;;;;;;4984203;28;20559;-85
2023/09/05 13:26:47;;;;;;;2.15;1.27;;;;;;;;;;4993830;28;20093;-84
2023/09/05 13:29:13;;;;;;;2.20;1.40;;;;;;;;;;4992687;28;20058;-92
2023/09/05 13:31:39;;;;;;;2.10;1.35;;;;;;;;;;4983626;28;20050;-88
2023/09/05 13:34:05;;;;;;;3.05;1.30;;;;;;;;;;4986115;28;20031;-85
2023/09/05 13:36:31;;;;;;;3.13;1.55;;;;;;;;;;4982467;28;20068;-85
2023/09/05 13:38:57;;;;;;;2.03;1.30;;;30.10;81.20;;;;;;4995485;28;20031;-89
2023/09/05 13:41:23;;;;;;;3.20;1.80;;;;;;;;;;4998473;28;20027;-86
2023/09/05 13:43:49;;;;;;;3.88;1.58;;;;;;;;;;4989286;28;20023;-91
2023/09/05 13:46:15;;;;;;;3.55;1.40;;;;;;;;;;4989960;28;20066;-87
2023/09/05 13:48:42;;;;;;;3.85;1.60;;;;;;;;;;4988129;28;20027;-87
2023/09/05 13:51:08;;;;;;;2.40;1.50;;;;;;;;;;4985872;28;20019;-88
2023/09/05 13:53:34;;;;;;;4.32;1.35;;;;;;;;;;4986440;28;20036;-88
2023/09/05 13:56:02;;;;;;;3.35;1.42;;;;;;;;;;4981030;28;20018;-85
2023/09/05 13:58:29;;;;;;;2.30;1.67;;;;;;;;;;4989195;28;20039;-85
2023/09/05 14:00:57;;;;;;;3.00;1.67;;;;;;;;;;4981985;28;20066;-86
2023/09/05 14:03:23;;;;;;;2.45;1.58;;;;;;;;;;4982675;28;20035;-86
2023/09/05 14:05:50;;;;;;;2.45;1.50;;;;;;;;;;4991812;28;20035;-88
2023/09/05 14:08:16;;;;;;;2.78;1.60;;;;;;;;;;4987905;28;20035;-87
2023/09/05 14:10:42;;;;;;;2.20;1.20;;;;;;;;;;4965627;28;20067;-86
2023/09/05 14:13:09;;;;;;;3.78;1.60;;;30.20;81.90;;;;;;4979795;28;20077;-88
2023/09/05 14:15:35;;;;;;;2.55;1.60;;;;;;;;;;4980829;28;20035;-86
2023/09/05 14:18:02;;;;;;;3.38;1.70;;;;;;;;;;4978439;28;20507;-84
2023/09/05 14:20:28;;;;;;;2.45;1.52;;;;;;;;;;4988707;28;20027;-86
2023/09/05 14:22:54;;;;;;;7.13;1.80;;;;;;;;;;4986187;28;20031;-91
2023/09/05 14:25:20;;;;;;;4.13;1.40;;;;;;;;;;4991057;28;20019;-90
2023/09/05 14:27:46;;;;;;;2.53;1.42;;;;;;;;;;4997307;28;20039;-85
2023/09/05 14:30:12;;;;;;;3.63;1.65;;;;;;;;;;4986613;28;20041;-84
2023/09/05 14:32:39;;;;;;;3.75;2.00;;;;;;;;;;4982162;28;20043;-88
2023/09/05 14:35:05;;;;;;;4.20;2.40;;;;;;;;;;4987566;28;20027;-83
2023/09/05 14:37:31;;;;;;;5.68;1.95;;;;;;;;;;4980505;28;20031;-84
2023/09/05 14:39:57;;;;;;;4.43;1.33;;;;;;;;;;4994943;28;20031;-84
2023/09/05 14:42:23;;;;;;;3.03;1.60;;;;;;;;;;4979908;28;20054;-84
2023/09/05 14:44:49;;;;;;;2.78;1.48;;;;;;;;;;4976720;28;20039;-87
2023/09/05 14:47:17;;;;;;;3.85;1.90;;;;;;;;;;4983042;28;20505;-84
2023/09/05 14:49:45;;;;;;;6.70;2.20;;;;;;;;;;4968796;28;20038;-84
2023/09/05 14:52:13;;;;;;;2.13;1.40;;;;;;;;;;4979177;28;20064;-85
2023/09/05 14:54:39;;;;;;;4.90;1.38;;;;;;;;;;4975367;28;20023;-86
2023/09/05 14:57:05;;;;;;;1.83;1.25;;;;;;;;;;4974972;28;20102;-84
2023/09/05 14:59:31;;;;;;;3.05;1.65;;;;;;;;;;4982670;28;20035;-85
2023/09/05 15:01:57;;;;;;;2.55;1.30;;;;;;;;;;4972413;28;20027;-85
2023/09/05 15:04:23;;;;;;;3.88;1.55;;;;;;;;;;4979632;28;20153;-83
2023/09/05 15:06:51;;;;;;;4.65;1.52;;;;;;;;;;4983936;28;20054;-85
2023/09/05 15:09:17;;;;;;;2.33;1.58;;;;;;;;;;4979319;28;20396;-84
2023/09/05 15:11:43;;;;;;;2.97;1.48;;;;;;;;;;4979046;28;20018;-85
2023/09/05 15:14:11;;;;;;;3.08;1.67;;;;;;;;;;4981657;28;20051;-84
2023/09/05 15:16:40;;;;;;;3.75;1.63;;;;;;;;;;4975846;28;20102;-86
2023/09/05 15:19:07;;;;;;;3.42;1.90;;;;;;;;;;4978035;28;20062;-84
2023/09/05 15:21:38;;;;;;;3.58;1.42;;;;;;;;;;4974338;28;20027;-85
2023/09/05 15:24:06;;;;;;;2.63;1.42;;;;;;;;;;4980979;28;20030;-86
2023/09/05 15:26:35;;;;;;;2.35;1.58;;;;;;;;;;4971090;28;20058;-85
2023/09/05 15:29:01;;;;;;;;;;;29.80;82.30;;;;;;4982818;28;20061;-89
2023/09/05 15:31:27;;;;;;;2.30;1.48;;;;;;;;;;4991794;28;19922;-90
2023/09/05 15:33:54;;;;;;;2.80;1.60;;;;;;;;;;4994276;28;20023;-92
2023/09/05 15:36:20;;;;;;;2.63;1.27;;;;;;;;;;4993583;28;20018;-95
2023/09/05 15:38:46;;;;;;;2.88;1.40;;;;;;;;;;4992126;28;20018;-92
2023/09/05 15:41:12;;;;;;;3.97;1.63;;;;;;;;;;4994868;28;20153;-92
2023/09/05 15:43:38;;;;;;;5.38;1.65;;;;;;;;;;4992942;28;20042;-92
2023/09/05 15:46:04;;;;;;;4.53;1.52;;;;;;;;;;4995227;28;20007;-94
2023/09/05 15:48:30;;;;;;;3.20;1.40;;;;;;;;;;4994903;28;20023;-93
2023/09/05 15:50:56;;;;;;;2.58;1.70;;;;;;;;;;4982532;28;20215;-84
2023/09/05 15:53:22;;;;;;;2.72;1.55;;;;;;;;;;4971388;28;20049;-85
2023/09/05 15:55:50;;;;;;;2.53;1.60;;;;;;;;;;4976721;28;20087;-85
2023/09/05 15:58:17;;;;;;;2.30;1.50;;;;;;;;;;4975672;28;20031;-85
2023/09/05 16:00:43;;;;;;;2.92;2.00;;;;;;;;;;4972918;28;20041;-84
2023/09/05 16:03:09;;;;;;;2.78;1.70;;;;;;;;;;4970852;28;20035;-86
2023/09/05 16:05:35;;;;;;;4.45;1.90;;;;;;;;;;4978724;28;20034;-85
2023/09/05 16:08:02;;;;;;;2.42;1.63;;;;;;;;;;4969247;28;20073;-87
2023/09/05 16:10:28;;;;;;;5.03;1.80;;;;;;;;;;4973814;28;20031;-85
2023/09/05 16:12:55;;;;;;;2.95;1.63;;;;;;;;;;4977635;28;20027;-86
2023/09/05 16:15:21;;;;;;;2.25;1.48;;;;;;;;;;4973736;28;20049;-85
2023/09/05 16:17:47;;;;;;;3.22;1.70;;;;;;;;;;4981294;28;20027;-85
2023/09/05 16:20:16;;;;;;;2.95;1.40;;;;;;;;;;4981079;28;20469;-84
2023/09/05 16:22:43;;;;;;;2.67;1.40;;;;;;;;;;4997491;28;20050;-82
2023/09/05 16:25:10;;;;;;;6.20;1.90;;;;;;;;;;4997164;28;20036;-86
2023/09/05 16:27:36;;;;;;;3.28;1.70;;;;;;;;;;4997446;28;20022;-84
2023/09/05 16:30:02;;;;;;;3.67;1.67;;;;;;;;;;4976905;28;20110;-85
2023/09/05 16:32:30;;;;;;;4.47;1.98;;;;;;;;;;4981329;28;20019;-89
2023/09/05 16:34:56;;;;;;;3.65;1.60;;;;;;;;;;4978641;28;20021;-85
2023/09/05 16:37:22;;;;;;;3.25;1.77;;;;;;;;;;4976808;28;20026;-84
2023/09/05 16:39:50;;;;;;;2.13;1.45;;;;;;;;;;4981518;28;20030;-83
2023/09/05 16:42:17;;;;;;;3.95;1.70;;;;;;;;;;4980985;28;20027;-84
2023/09/05 16:44:44;;;;;;;2.50;1.70;;;;;;;;;;4983173;28;20034;-82
2023/09/05 16:47:13;;;;;;;3.72;1.70;;;;;;;;;;4983851;28;20098;-83
2023/09/05 16:49:39;;;;;;;3.15;1.92;;;;;;;;;;4988698;28;20599;-87
2023/09/05 16:52:06;;;;;;;4.50;1.65;;;;;;;;;;4988313;28;20039;-85
2023/09/05 16:54:32;;;;;;;3.20;1.60;;;;;;;;;;4985716;28;20034;-87
2023/09/05 16:56:58;;;;;;;3.78;1.88;;;;;;;;;;4986197;28;20031;-86
2023/09/05 16:59:24;;;;;;;2.47;1.60;;;;;;;;;;4987946;28;20464;-87